createdAt,value
2023-04-27T00:01:11.300Z,6.07
2023-04-27T00:03:38.522Z,7.88
2023-04-27T00:06:05.407Z,7.00
2023-04-27T00:08:32.214Z,4.78
2023-04-27T00:10:58.781Z,6.70
2023-04-27T00:13:25.484Z,8.05
2023-04-27T00:15:52.107Z,7.30
2023-04-27T00:18:18.821Z,6.18
2023-04-27T00:20:45.281Z,5.50
2023-04-27T00:23:11.835Z,6.67
2023-04-27T00:25:38.616Z,6.53
2023-04-27T00:28:05.433Z,5.60
2023-04-27T00:30:31.960Z,6.53
2023-04-27T00:32:58.587Z,6.90
2023-04-27T00:35:25.178Z,5.33
2023-04-27T00:37:53.985Z,6.10
2023-04-27T00:40:21.680Z,6.93
2023-04-27T00:42:48.147Z,7.03
2023-04-27T00:45:14.690Z,5.78
2023-04-27T00:47:42.116Z,6.53
2023-04-27T00:50:10.457Z,5.95
2023-04-27T00:52:37.720Z,6.15
2023-04-27T00:55:05.131Z,5.93
2023-04-27T00:57:33.219Z,6.18
2023-04-27T01:00:00.665Z,5.60
2023-04-27T01:02:27.906Z,3.78
2023-04-27T01:04:55.741Z,8.75
2023-04-27T01:07:25.900Z,7.03
2023-04-27T01:09:52.814Z,5.47
2023-04-27T01:12:19.387Z,5.67
2023-04-27T01:14:45.914Z,4.93
2023-04-27T01:17:12.440Z,6.57
2023-04-27T01:19:40.482Z,5.78
2023-04-27T01:22:07.245Z,5.28
2023-04-27T01:24:33.835Z,6.53
2023-04-27T01:27:01.772Z,5.93
2023-04-27T01:29:28.422Z,6.70
2023-04-27T01:31:54.966Z,6.13
2023-04-27T01:34:21.825Z,6.93
2023-04-27T01:36:48.374Z,5.83
2023-04-27T01:39:16.577Z,5.18
2023-04-27T01:41:43.144Z,5.00
2023-04-27T01:44:09.722Z,5.30
2023-04-27T01:46:36.232Z,6.07
2023-04-27T01:49:02.876Z,6.47
2023-04-27T01:51:29.349Z,5.95
2023-04-27T01:53:55.977Z,6.25
2023-04-27T01:56:22.485Z,5.05
2023-04-27T01:58:49.008Z,5.75
2023-04-27T02:01:15.720Z,6.00
2023-04-27T02:03:42.475Z,5.70
2023-04-27T02:06:09.439Z,6.22
2023-04-27T02:08:36.015Z,6.13
2023-04-27T02:11:02.685Z,6.85
2023-04-27T02:13:29.206Z,5.40
2023-04-27T02:15:56.303Z,5.72
2023-04-27T02:18:23.066Z,7.15
2023-04-27T02:20:49.859Z,5.57
2023-04-27T02:23:16.346Z,5.63
2023-04-27T02:25:46.608Z,7.67
2023-04-27T02:28:14.251Z,6.75
2023-04-27T02:30:41.338Z,6.35
2023-04-27T02:33:07.933Z,5.15
2023-04-27T02:35:34.674Z,6.30
2023-04-27T02:38:01.218Z,6.47
2023-04-27T02:40:28.355Z,6.13
2023-04-27T02:42:55.012Z,6.28
2023-04-27T02:45:21.485Z,6.18
2023-04-27T02:47:47.936Z,5.75
2023-04-27T02:50:14.489Z,5.10
2023-04-27T02:52:40.949Z,5.68
2023-04-27T02:55:07.725Z,5.28
2023-04-27T02:57:34.248Z,6.25
2023-04-27T03:00:01.610Z,6.20
2023-04-27T03:02:29.376Z,5.83
2023-04-27T03:04:56.121Z,5.97
2023-04-27T03:07:22.945Z,5.63
2023-04-27T03:09:49.437Z,5.70
2023-04-27T03:12:16.220Z,7.00
2023-04-27T03:14:42.782Z,6.27
2023-04-27T03:17:09.305Z,6.75
2023-04-27T03:19:35.878Z,6.65
2023-04-27T03:22:02.390Z,6.40
2023-04-27T03:24:29.449Z,6.80
2023-04-27T03:26:56.998Z,5.70
2023-04-27T03:29:23.566Z,5.75
2023-04-27T03:31:50.062Z,5.55
2023-04-27T03:34:16.904Z,5.60
2023-04-27T03:36:43.550Z,6.20
2023-04-27T03:39:10.031Z,5.73
2023-04-27T03:41:36.629Z,5.55
2023-04-27T03:44:03.325Z,7.60
2023-04-27T03:46:29.967Z,6.28
2023-04-27T03:48:56.505Z,6.43
2023-04-27T03:51:23.071Z,6.57
2023-04-27T03:53:49.672Z,5.72
2023-04-27T03:56:16.307Z,5.55
2023-04-27T03:58:42.826Z,6.93
2023-04-27T04:01:10.241Z,6.20
2023-04-27T04:03:37.236Z,8.57
2023-04-27T04:06:03.925Z,5.63
2023-04-27T04:08:30.787Z,5.78
2023-04-27T04:10:59.590Z,6.10
2023-04-27T04:13:26.970Z,6.57
2023-04-27T04:16:05.097Z,6.17
2023-04-27T04:18:31.937Z,6.63
2023-04-27T04:20:58.752Z,6.05
2023-04-27T04:23:25.944Z,5.70
2023-04-27T04:25:52.807Z,5.72
2023-04-27T04:28:19.345Z,5.77
2023-04-27T04:30:45.874Z,6.07
2023-04-27T04:33:12.455Z,5.85
2023-04-27T04:35:39.683Z,6.28
2023-04-27T04:38:06.147Z,6.00
2023-04-27T04:40:32.806Z,5.93
2023-04-27T04:42:59.229Z,6.35
2023-04-27T04:45:26.082Z,5.70
2023-04-27T04:47:54.509Z,6.38
2023-04-27T04:50:21.261Z,6.22
2023-04-27T04:52:47.811Z,6.60
2023-04-27T04:55:15.100Z,5.75
2023-04-27T04:57:41.604Z,6.70
2023-04-27T05:00:12.860Z,9.25
2023-04-27T05:02:42.920Z,8.98
2023-04-27T05:05:10.087Z,9.03
2023-04-27T05:07:36.711Z,7.32
2023-04-27T05:10:03.506Z,9.05
2023-04-27T05:12:30.085Z,6.78
2023-04-27T05:14:56.660Z,7.28
2023-04-27T05:17:23.707Z,6.90
2023-04-27T05:19:50.255Z,7.75
2023-04-27T05:22:16.802Z,6.72
2023-04-27T05:24:43.328Z,6.05
2023-04-27T05:27:09.746Z,8.48
2023-04-27T05:29:36.334Z,5.60
2023-04-27T05:32:03.611Z,4.20
2023-04-27T05:34:30.262Z,4.57
2023-04-27T05:36:56.875Z,5.03
2023-04-27T05:39:23.480Z,4.70
2023-04-27T05:41:49.974Z,4.67
2023-04-27T05:44:16.709Z,4.78
2023-04-27T05:46:43.258Z,3.83
2023-04-27T05:49:09.718Z,4.00
2023-04-27T05:51:38.249Z,4.32
2023-04-27T05:54:04.970Z,5.20
2023-04-27T05:56:31.522Z,4.43
2023-04-27T05:58:58.709Z,4.93
2023-04-27T06:01:26.777Z,4.70
2023-04-27T06:03:53.379Z,5.03
2023-04-27T06:06:21.138Z,4.40
2023-04-27T06:08:47.657Z,4.38
2023-04-27T06:11:14.195Z,4.20
2023-04-27T06:13:40.683Z,3.75
2023-04-27T06:16:08.138Z,4.65
2023-04-27T06:18:34.764Z,4.00
2023-04-27T06:21:01.900Z,4.00
2023-04-27T06:23:28.854Z,4.40
2023-04-27T06:25:55.889Z,4.20
2023-04-27T06:28:22.445Z,4.57
2023-04-27T06:30:49.000Z,5.10
2023-04-27T06:33:15.661Z,4.10
2023-04-27T06:35:43.247Z,3.70
2023-04-27T06:38:11.080Z,5.18
2023-04-27T06:40:37.664Z,3.70
2023-04-27T06:43:04.865Z,3.67
2023-04-27T06:45:31.299Z,3.50
2023-04-27T06:47:57.895Z,3.38
2023-04-27T06:50:24.394Z,3.58
2023-04-27T06:52:50.890Z,3.38
2023-04-27T06:55:17.410Z,3.10
2023-04-27T06:57:43.917Z,3.55
2023-04-27T07:00:13.301Z,3.50
2023-04-27T07:02:40.001Z,3.45
2023-04-27T07:05:06.786Z,3.50
2023-04-27T07:07:33.396Z,3.30
2023-04-27T07:09:59.886Z,3.15
2023-04-27T07:12:26.980Z,4.07
2023-04-27T07:14:53.567Z,3.10
2023-04-27T07:17:20.177Z,3.50
2023-04-27T07:19:46.775Z,4.40
2023-04-27T07:22:13.316Z,4.55
2023-04-27T07:24:39.900Z,4.60
2023-04-27T07:27:07.365Z,4.35
2023-04-27T07:29:34.355Z,4.20
2023-04-27T07:32:01.184Z,3.47
2023-04-27T07:34:35.018Z,3.13
2023-04-27T07:37:09.882Z,3.95
2023-04-27T07:39:36.767Z,3.28
2023-04-27T07:42:03.618Z,2.97
2023-04-27T07:44:30.485Z,2.57
2023-04-27T07:46:58.526Z,2.35
2023-04-27T07:49:26.273Z,2.20
2023-04-27T07:51:52.825Z,2.83
2023-04-27T07:54:19.368Z,2.78
2023-04-27T07:56:45.969Z,3.00
2023-04-27T07:59:12.923Z,2.78
2023-04-27T08:01:39.677Z,3.13
2023-04-27T08:04:06.775Z,2.25
2023-04-27T08:06:34.276Z,2.28
2023-04-27T08:09:03.184Z,2.40
2023-04-27T08:11:30.356Z,2.10
2023-04-27T08:13:57.154Z,2.45
2023-04-27T08:16:23.717Z,1.95
2023-04-27T08:18:50.849Z,2.30
2023-04-27T08:21:17.463Z,2.43
2023-04-27T08:23:43.968Z,2.38
2023-04-27T08:26:14.653Z,2.63
2023-04-27T08:28:41.185Z,2.40
2023-04-27T08:31:07.836Z,1.85
2023-04-27T08:33:34.503Z,2.27
2023-04-27T08:36:01.177Z,2.33
2023-04-27T08:38:27.691Z,2.17
2023-04-27T08:40:54.279Z,2.40
2023-04-27T08:43:20.862Z,2.50
2023-04-27T08:45:50.188Z,2.47
2023-04-27T08:48:16.856Z,2.10
2023-04-27T08:50:44.900Z,2.40
2023-04-27T08:53:18.821Z,2.28
2023-04-27T08:55:45.485Z,2.33
2023-04-27T08:58:11.971Z,2.10
2023-04-27T09:00:41.574Z,2.15
2023-04-27T09:03:19.289Z,2.40
2023-04-27T09:06:00.558Z,3.35
2023-04-27T09:08:48.333Z,2.63
2023-04-27T09:11:38.302Z,2.20
2023-04-27T09:14:22.480Z,2.20
2023-04-27T09:16:59.653Z,2.33
2023-04-27T09:19:30.777Z,2.47
2023-04-27T09:22:05.487Z,1.90
2023-04-27T09:24:31.926Z,2.40
2023-04-27T09:27:00.610Z,2.40
2023-04-27T09:29:38.413Z,2.17
2023-04-27T09:32:19.118Z,1.60
2023-04-27T09:34:45.721Z,2.17
2023-04-27T09:37:12.780Z,2.20
2023-04-27T09:39:39.819Z,2.20
2023-04-27T09:42:06.440Z,2.15
2023-04-27T09:44:33.814Z,2.33
2023-04-27T09:47:01.300Z,1.67
2023-04-27T09:49:31.433Z,2.27
2023-04-27T09:51:58.989Z,2.08
2023-04-27T09:54:30.380Z,2.00
2023-04-27T09:57:38.192Z,1.70
2023-04-27T10:00:18.081Z,2.10
2023-04-27T10:02:59.891Z,1.77
2023-04-27T10:05:46.836Z,1.70
2023-04-27T10:08:13.915Z,1.60
2023-04-27T10:10:48.392Z,2.00
2023-04-27T10:13:23.586Z,1.52
2023-04-27T10:15:51.306Z,1.80
2023-04-27T10:18:29.442Z,1.50
2023-04-27T10:20:56.198Z,2.42
2023-04-27T10:23:26.983Z,1.70
2023-04-27T10:25:54.492Z,1.80
2023-04-27T10:28:21.474Z,1.50
2023-04-27T10:30:49.172Z,1.42
2023-04-27T10:33:18.635Z,2.05
2023-04-27T10:35:54.867Z,1.75
2023-04-27T10:38:27.499Z,2.00
2023-04-27T10:41:02.121Z,1.60
2023-04-27T10:43:34.867Z,1.98
2023-04-27T10:46:09.522Z,1.73
2023-04-27T10:48:36.169Z,1.52
2023-04-27T10:51:03.536Z,1.70
2023-04-27T10:53:37.078Z,1.70
2023-04-27T10:56:06.959Z,1.40
2023-04-27T10:58:45.290Z,1.90
2023-04-27T11:01:26.797Z,1.45
2023-04-27T11:04:00.274Z,1.40
2023-04-27T11:06:28.347Z,1.60
2023-04-27T11:08:54.952Z,1.83
2023-04-27T11:11:22.576Z,2.08
2023-04-27T11:13:50.087Z,1.50
2023-04-27T11:16:16.971Z,1.73
2023-04-27T11:18:43.600Z,1.60
2023-04-27T11:21:13.294Z,2.20
2023-04-27T11:23:40.685Z,1.85
2023-04-27T11:26:25.316Z,2.20
2023-04-27T11:29:06.542Z,2.10
2023-04-27T11:31:47.401Z,1.50
2023-04-27T11:34:22.990Z,1.20
2023-04-27T11:37:16.839Z,1.58
2023-04-27T11:39:45.906Z,1.70
2023-04-27T11:42:15.489Z,2.13
2023-04-27T11:44:42.098Z,1.30
2023-04-27T11:47:09.286Z,1.35
2023-04-27T11:49:37.666Z,1.80
2023-04-27T11:52:04.600Z,1.63
2023-04-27T11:54:31.325Z,2.22
2023-04-27T11:57:08.145Z,1.63
2023-04-27T11:59:34.739Z,1.25
2023-04-27T12:02:01.364Z,1.60
2023-04-27T12:04:29.556Z,2.05
2023-04-27T12:06:56.389Z,1.80
2023-04-27T12:09:22.898Z,1.70
2023-04-27T12:11:49.610Z,1.70
2023-04-27T12:14:16.433Z,1.80
2023-04-27T12:16:43.355Z,2.00
2023-04-27T12:19:09.906Z,1.83
2023-04-27T12:21:36.441Z,1.67
2023-04-27T12:24:02.967Z,2.13
2023-04-27T12:26:29.416Z,1.90
2023-04-27T12:28:56.276Z,1.40
2023-04-27T12:31:27.519Z,1.70
2023-04-27T12:33:54.420Z,1.80
2023-04-27T12:36:20.932Z,1.67
2023-04-27T12:38:47.623Z,1.60
2023-04-27T12:41:14.197Z,1.70
2023-04-27T12:43:41.260Z,1.60
2023-04-27T12:46:07.965Z,1.90
2023-04-27T12:48:34.824Z,1.50
2023-04-27T12:51:01.480Z,1.40
2023-04-27T12:53:28.812Z,1.92
2023-04-27T12:55:55.610Z,1.80
2023-04-27T12:58:22.157Z,1.50
2023-04-27T13:00:48.735Z,1.73
2023-04-27T13:03:15.649Z,1.52
2023-04-27T13:05:42.193Z,2.10
2023-04-27T13:08:09.095Z,1.88
2023-04-27T13:10:36.631Z,1.97
2023-04-27T13:13:03.384Z,1.33
2023-04-27T13:15:29.856Z,2.13
2023-04-27T13:17:58.196Z,1.70
2023-04-27T13:20:25.024Z,1.83
2023-04-27T13:22:51.476Z,1.27
2023-04-27T13:25:19.768Z,1.70
2023-04-27T13:27:46.332Z,1.50
2023-04-27T13:30:13.048Z,1.98
2023-04-27T13:32:39.654Z,1.60
2023-04-27T13:35:07.777Z,1.67
2023-04-27T13:37:34.512Z,1.42
2023-04-27T13:40:01.128Z,1.38
2023-04-27T13:42:29.501Z,1.52
2023-04-27T13:44:57.052Z,1.40
2023-04-27T13:47:23.546Z,1.23
2023-04-27T13:49:50.176Z,1.65
2023-04-27T13:52:16.789Z,1.70
2023-04-27T13:54:43.272Z,1.63
2023-04-27T13:57:09.856Z,2.03
2023-04-27T13:59:36.371Z,1.30
2023-04-27T14:02:03.455Z,1.30
2023-04-27T14:04:30.111Z,1.77
2023-04-27T14:06:56.780Z,1.60
2023-04-27T14:09:24.243Z,1.55
2023-04-27T14:11:57.013Z,1.93
2023-04-27T14:14:24.027Z,1.60
2023-04-27T14:16:53.791Z,1.65
2023-04-27T14:19:20.611Z,1.60
2023-04-27T14:21:48.096Z,1.67
2023-04-27T14:24:14.838Z,2.10
2023-04-27T14:26:44.016Z,1.70
2023-04-27T14:29:11.686Z,2.10
2023-04-27T14:31:39.311Z,1.98
2023-04-27T14:34:06.573Z,2.05
2023-04-27T14:36:33.535Z,1.73
2023-04-27T14:39:01.154Z,1.80
2023-04-27T14:41:28.250Z,2.40
2023-04-27T14:43:54.809Z,2.10
2023-04-27T14:46:22.079Z,2.28
2023-04-27T14:48:49.472Z,2.30
2023-04-27T14:51:17.111Z,2.30
2023-04-27T14:53:44.147Z,2.13
2023-04-27T14:56:11.569Z,2.00
2023-04-27T14:58:38.672Z,2.10
2023-04-27T15:01:06.046Z,1.73
2023-04-27T15:03:32.765Z,2.25
2023-04-27T15:06:00.801Z,2.20
2023-04-27T15:08:27.819Z,2.58
2023-04-27T15:10:57.702Z,1.90
2023-04-27T15:13:24.804Z,2.00
2023-04-27T15:16:09.389Z,2.20
2023-04-27T15:18:36.242Z,2.40
2023-04-27T15:21:02.774Z,1.92
2023-04-27T15:23:29.371Z,1.98
2023-04-27T15:25:58.191Z,1.87
2023-04-27T15:28:24.851Z,2.30
2023-04-27T15:30:51.515Z,2.60
2023-04-27T15:33:18.830Z,2.28
2023-04-27T15:35:45.566Z,1.90
2023-04-27T15:38:13.312Z,1.67
2023-04-27T15:40:40.016Z,2.00
2023-04-27T15:43:06.914Z,2.03
2023-04-27T15:45:33.667Z,1.83
2023-04-27T15:48:00.398Z,2.20
2023-04-27T15:50:27.104Z,2.10
2023-04-27T15:52:53.932Z,1.75
2023-04-27T15:55:21.015Z,1.73
2023-04-27T15:57:47.611Z,1.70
2023-04-27T16:00:16.605Z,1.90
2023-04-27T16:02:43.692Z,1.80
2023-04-27T16:05:10.937Z,1.70
2023-04-27T16:07:39.617Z,1.70
2023-04-27T16:10:07.208Z,1.65
2023-04-27T16:12:33.919Z,1.80
2023-04-27T16:15:00.878Z,1.80
2023-04-27T16:17:29.435Z,2.03
2023-04-27T16:19:55.998Z,2.22
2023-04-27T16:22:22.704Z,2.60
2023-04-27T16:24:49.277Z,2.25
2023-04-27T16:27:17.453Z,2.20
2023-04-27T16:29:44.042Z,2.30
2023-04-27T16:32:11.077Z,1.95
2023-04-27T16:34:38.197Z,2.00
2023-04-27T16:37:05.933Z,1.60
2023-04-27T16:39:32.915Z,2.13
2023-04-27T16:41:59.697Z,1.65
2023-04-27T16:44:26.265Z,2.30
2023-04-27T16:46:52.915Z,2.10
2023-04-27T16:49:19.560Z,2.20
2023-04-27T16:51:46.287Z,1.90
2023-04-27T16:54:16.263Z,2.10
2023-04-27T16:56:42.877Z,2.17
2023-04-27T16:59:12.570Z,2.03
2023-04-27T17:01:40.012Z,3.33
2023-04-27T17:04:06.968Z,2.90
2023-04-27T17:06:34.760Z,2.22
2023-04-27T17:09:01.684Z,2.22
2023-04-27T17:11:28.230Z,2.08
2023-04-27T17:13:55.021Z,2.55
2023-04-27T17:16:21.936Z,1.97
2023-04-27T17:18:49.005Z,2.10
2023-04-27T17:21:17.181Z,2.22
2023-04-27T17:23:46.535Z,1.90
2023-04-27T17:26:15.849Z,2.15
2023-04-27T17:28:42.432Z,2.00
2023-04-27T17:31:09.094Z,1.90
2023-04-27T17:33:36.185Z,1.92
2023-04-27T17:36:02.891Z,1.88
2023-04-27T17:38:29.409Z,1.73
2023-04-27T17:40:59.483Z,1.80
2023-04-27T17:43:26.098Z,1.35
2023-04-27T17:45:52.665Z,2.03
2023-04-27T17:48:19.338Z,2.00
2023-04-27T17:50:45.982Z,2.00
2023-04-27T17:53:13.189Z,1.40
2023-04-27T17:55:39.833Z,1.50
2023-04-27T17:58:06.523Z,1.50
2023-04-27T18:00:33.335Z,1.63
2023-04-27T18:03:00.249Z,2.25
2023-04-27T18:05:27.133Z,1.60
2023-04-27T18:07:53.793Z,1.60
2023-04-27T18:10:20.675Z,1.60
2023-04-27T18:12:47.261Z,1.63
2023-04-27T18:15:14.087Z,1.52
2023-04-27T18:17:40.710Z,1.90
2023-04-27T18:20:10.113Z,1.80
2023-04-27T18:22:40.254Z,1.63
2023-04-27T18:25:08.402Z,1.67
2023-04-27T18:27:37.340Z,1.63
2023-04-27T18:30:10.361Z,1.60
2023-04-27T18:32:37.189Z,1.50
2023-04-27T18:35:04.089Z,2.35
2023-04-27T18:37:30.794Z,2.53
2023-04-27T18:39:57.393Z,2.75
2023-04-27T18:42:24.105Z,3.10
2023-04-27T18:44:55.402Z,3.10
2023-04-27T18:47:22.074Z,4.18
2023-04-27T18:49:48.791Z,5.35
2023-04-27T18:52:15.623Z,4.45
2023-04-27T18:54:42.571Z,5.73
2023-04-27T18:57:12.620Z,5.07
2023-04-27T18:59:39.898Z,5.30
2023-04-27T19:02:07.222Z,4.35
2023-04-27T19:04:37.643Z,5.32
2023-04-27T19:07:04.296Z,5.27
2023-04-27T19:09:31.155Z,5.00
2023-04-27T19:12:02.792Z,5.68
2023-04-27T19:14:31.518Z,5.03
2023-04-27T19:16:58.189Z,5.63
2023-04-27T19:19:26.068Z,5.97
2023-04-27T19:21:55.918Z,5.22
2023-04-27T19:24:22.560Z,6.85
2023-04-27T19:26:49.166Z,6.25
2023-04-27T19:29:16.567Z,6.20
2023-04-27T19:31:43.569Z,7.03
2023-04-27T19:34:12.280Z,7.47
2023-04-27T19:36:42.116Z,6.40
2023-04-27T19:39:08.720Z,4.70
2023-04-27T19:41:35.358Z,4.88
2023-04-27T19:44:01.871Z,4.40
2023-04-27T19:46:28.395Z,5.85
2023-04-27T19:48:54.994Z,5.80
2023-04-27T19:51:21.647Z,6.93
2023-04-27T19:53:48.474Z,6.78
2023-04-27T19:56:15.307Z,5.57
2023-04-27T19:58:42.153Z,6.65
2023-04-27T20:01:09.610Z,7.35
2023-04-27T20:03:38.961Z,6.78
2023-04-27T20:06:06.108Z,7.35
2023-04-27T20:08:34.201Z,8.50
2023-04-27T20:11:00.810Z,8.73
2023-04-27T20:13:27.530Z,8.57
2023-04-27T20:15:54.423Z,8.13
2023-04-27T20:18:21.190Z,6.90
2023-04-27T20:20:48.067Z,5.83
2023-04-27T20:23:14.624Z,9.52
2023-04-27T20:25:41.092Z,7.55
2023-04-27T20:28:07.678Z,6.65
2023-04-27T20:30:34.237Z,8.43
2023-04-27T20:33:01.737Z,6.27
2023-04-27T20:35:28.392Z,8.75
2023-04-27T20:37:55.041Z,8.70
2023-04-27T20:40:21.847Z,9.73
2023-04-27T20:42:49.363Z,9.82
2023-04-27T20:45:17.478Z,7.87
2023-04-27T20:47:44.160Z,9.35
2023-04-27T20:50:10.960Z,9.23
2023-04-27T20:52:37.686Z,9.77
2023-04-27T20:55:05.359Z,10.38
2023-04-27T20:57:32.473Z,9.87
2023-04-27T20:59:59.145Z,7.60
2023-04-27T21:02:25.975Z,10.15
2023-04-27T21:04:53.060Z,9.50
2023-04-27T21:07:19.800Z,9.25
2023-04-27T21:09:46.384Z,8.47
2023-04-27T21:12:14.760Z,8.40
2023-04-27T21:14:41.370Z,9.90
2023-04-27T21:17:08.178Z,7.07
2023-04-27T21:19:34.803Z,9.80
2023-04-27T21:22:01.454Z,10.90
2023-04-27T21:24:28.043Z,10.43
2023-04-27T21:26:54.596Z,10.57
2023-04-27T21:29:21.123Z,9.60
2023-04-27T21:31:47.709Z,10.20
2023-04-27T21:34:14.751Z,9.77
2023-04-27T21:36:41.925Z,10.57
2023-04-27T21:39:08.482Z,10.75
2023-04-27T21:41:35.298Z,12.15
2023-04-27T21:44:01.803Z,10.10
2023-04-27T21:46:28.393Z,10.80
2023-04-27T21:48:55.369Z,10.80
2023-04-27T21:51:21.886Z,10.05
2023-04-27T21:53:48.480Z,10.30
2023-04-27T21:56:15.036Z,8.50
2023-04-27T21:58:41.534Z,6.03
2023-04-27T22:01:08.072Z,7.65
2023-04-27T22:03:34.763Z,9.18
2023-04-27T22:06:01.492Z,9.45
2023-04-27T22:08:28.075Z,9.35
2023-04-27T22:10:55.692Z,9.37
2023-04-27T22:13:22.219Z,9.13
2023-04-27T22:15:48.852Z,9.30
2023-04-27T22:18:15.852Z,9.25
2023-04-27T22:20:42.974Z,8.75
2023-04-27T22:23:10.144Z,7.33
2023-04-27T22:25:36.915Z,7.22
2023-04-27T22:28:03.468Z,9.32
2023-04-27T22:30:30.962Z,9.25
2023-04-27T22:32:57.973Z,9.35
2023-04-27T22:35:27.552Z,9.17
2023-04-27T22:37:59.516Z,8.77
2023-04-27T22:40:26.194Z,10.35
2023-04-27T22:42:53.961Z,11.02
2023-04-27T22:45:22.038Z,11.02
2023-04-27T22:47:49.350Z,10.13
2023-04-27T22:50:16.693Z,11.27
2023-04-27T22:52:43.380Z,7.25
2023-04-27T22:55:11.244Z,14.63
2023-04-27T22:57:39.019Z,9.90
2023-04-27T23:00:07.784Z,9.77
2023-04-27T23:02:34.477Z,8.80
2023-04-27T23:05:01.143Z,7.15
2023-04-27T23:07:28.583Z,7.82
2023-04-27T23:09:55.867Z,10.15
2023-04-27T23:12:22.480Z,6.97
2023-04-27T23:14:48.960Z,9.25
2023-04-27T23:17:15.586Z,9.77
2023-04-27T23:19:42.143Z,6.28
2023-04-27T23:22:08.605Z,7.97
2023-04-27T23:24:35.066Z,8.93
2023-04-27T23:27:01.738Z,8.32
2023-04-27T23:29:28.508Z,8.00
2023-04-27T23:31:55.076Z,7.50
2023-04-27T23:34:21.701Z,7.70
2023-04-27T23:36:48.211Z,8.70
2023-04-27T23:39:14.720Z,7.95
2023-04-27T23:41:41.289Z,7.50
2023-04-27T23:44:08.412Z,8.85
2023-04-27T23:46:35.110Z,9.77
2023-04-27T23:49:01.736Z,6.60
2023-04-27T23:51:28.274Z,9.70
2023-04-27T23:53:54.820Z,9.82
2023-04-27T23:56:23.049Z,7.85
2023-04-27T23:58:49.789Z,8.05
